EDDH METAR and TAF weather

Enter ICAO airport designator

Example: see airport list

Station Type Date Time Source
EDDH METAR 2016/07/26 04:20 UTC NOAA

EDDH 260420Z 27003KT 230V290 9999 FEW016 BKN300 16/15 Q1019 NOSIG

Station Type Date Time Source
EDDH Decoded METAR 2016/07/26 04:20 UTC NOAA

Hamburg-Fuhlsbuettel, Germany (EDDH) 53-38N 010-00E 15M
Jul 25, 2016 - 11:50 PM EDT / 2016.07.26 0350 UTC
Wind: from the W (270 degrees) at 3 MPH (3 KT):0
Visibility: greater than 7 mile(s):0
Sky conditions: mostly cloudy
Temperature: 60 F (16 C)
Dew Point: 59 F (15 C)
Relative Humidity: 93%
Pressure (altimeter): 30.09 in. Hg (1019 hPa)
ob: EDDH 260350Z 27003KT 9999 FEW045 BKN300 16/15 Q1019 NOSIG
cycle: 4

Station Type Date Time Source
EDDH TAF 2016/07/25 18:27 UTC NOAA

TAF EDDH 251700Z 2518/2624 29006KT 9999 SCT030 PROB30
TEMPO 2518/2520 4500 TSRA BKN020CB PROB30
TEMPO 2520/2523 SHRA SCT020CB
BECMG 2617/2620 VRB03KT